createdAt,value
2023-04-13T00:01:32.844Z,99416.81
2023-04-13T00:04:03.519Z,99404.25
2023-04-13T00:06:30.427Z,99404.69
2023-04-13T00:08:58.739Z,99386.84
2023-04-13T00:11:27.820Z,99386.50
2023-04-13T00:13:55.256Z,99390.16
2023-04-13T00:16:22.398Z,99403.91
2023-04-13T00:18:50.358Z,99397.03
2023-04-13T00:21:17.259Z,99395.19
2023-04-13T00:23:44.814Z,99399.78
2023-04-13T00:26:11.412Z,99407.22
2023-04-13T00:28:38.483Z,99414.72
2023-04-13T00:31:05.274Z,99411.50
2023-04-13T00:33:32.518Z,99416.41
2023-04-13T00:35:59.649Z,99419.47
2023-04-13T00:38:29.816Z,99430.13
2023-04-13T00:40:56.433Z,99439.31
2023-04-13T00:43:23.423Z,99442.00
2023-04-13T00:45:50.143Z,99452.94
2023-04-13T00:48:16.917Z,99462.72
2023-04-13T00:50:43.782Z,99465.47
2023-04-13T00:53:13.360Z,99466.56
2023-04-13T00:55:42.255Z,99474.34
2023-04-13T00:58:09.151Z,99488.78
2023-04-13T01:00:39.188Z,99488.41
2023-04-13T01:03:06.048Z,99490.38
2023-04-13T01:05:39.714Z,99499.13
2023-04-13T01:08:13.284Z,99515.50
2023-04-13T01:10:51.524Z,99518.66
2023-04-13T01:13:23.856Z,99524.00
2023-04-13T01:16:03.865Z,99511.31
2023-04-13T01:18:35.521Z,99497.44
2023-04-13T01:21:02.687Z,99506.78
2023-04-13T01:24:09.474Z,99521.50
2023-04-13T01:27:00.826Z,99525.50
2023-04-13T01:29:27.209Z,99530.31
2023-04-13T01:31:54.410Z,99545.09
2023-04-13T01:34:21.908Z,99568.66
2023-04-13T01:36:49.406Z,99555.19
2023-04-13T01:39:21.631Z,99552.28
2023-04-13T01:41:56.273Z,99565.53
2023-04-13T01:44:22.857Z,99558.06
2023-04-13T01:46:54.383Z,99560.84
2023-04-13T01:49:40.822Z,99572.13
2023-04-13T01:52:27.815Z,99576.81
2023-04-13T01:54:56.369Z,99589.13
2023-04-13T01:57:24.085Z,99587.28
2023-04-13T01:59:51.694Z,99591.13
2023-04-13T02:02:21.075Z,99593.88
2023-04-13T02:04:47.711Z,99595.09
2023-04-13T02:07:16.350Z,99597.19
2023-04-13T02:09:47.189Z,99592.34
2023-04-13T02:12:16.719Z,99598.94
2023-04-13T02:14:43.647Z,99594.22
2023-04-13T02:17:11.242Z,99587.63
2023-04-13T02:19:39.943Z,99595.75
2023-04-13T02:22:07.218Z,99595.75
2023-04-13T02:24:33.723Z,99597.72
2023-04-13T02:27:02.033Z,99595.31
2023-04-13T02:29:28.697Z,99584.75
2023-04-13T02:31:55.277Z,99590.16
2023-04-13T02:34:21.952Z,99601.84
2023-04-13T02:36:48.618Z,99599.31
2023-04-13T02:39:15.490Z,99601.72
2023-04-13T02:41:43.303Z,99612.06
2023-04-13T02:44:14.674Z,99611.44
2023-04-13T02:46:48.050Z,99619.69
2023-04-13T02:49:17.298Z,99615.16
2023-04-13T02:51:54.034Z,99608.34
2023-04-13T02:54:29.839Z,99613.84
2023-04-13T02:56:56.717Z,99611.19
2023-04-13T02:59:23.252Z,99613.50
2023-04-13T03:01:49.831Z,99616.38
2023-04-13T03:04:18.888Z,99623.19
2023-04-13T03:06:46.048Z,99612.75
2023-04-13T03:09:12.625Z,99606.81
2023-04-13T03:11:45.472Z,99614.19
2023-04-13T03:14:21.135Z,99623.44
2023-04-13T03:16:51.890Z,99620.88
2023-04-13T03:19:21.953Z,99623.31
2023-04-13T03:21:48.546Z,99632.44
2023-04-13T03:24:18.859Z,99627.91
2023-04-13T03:26:45.424Z,99627.25
2023-04-13T03:29:16.339Z,99627.03
2023-04-13T03:31:45.421Z,99623.94
2023-04-13T03:34:12.220Z,99623.31
2023-04-13T03:36:40.657Z,99613.84
2023-04-13T03:39:07.141Z,99621.31
2023-04-13T03:41:37.050Z,99611.44
2023-04-13T03:44:04.747Z,99615.19
2023-04-13T03:46:37.353Z,99616.84
2023-04-13T03:49:10.985Z,99626.06
2023-04-13T03:51:38.305Z,99629.69
2023-04-13T03:54:04.880Z,99631.88
2023-04-13T03:56:32.774Z,99643.88
2023-04-13T03:58:59.818Z,99645.06
2023-04-13T04:01:27.442Z,99648.03
2023-04-13T04:03:57.278Z,99652.00
2023-04-13T04:06:27.143Z,99647.47
2023-04-13T04:09:05.414Z,99654.41
2023-04-13T04:11:36.648Z,99657.34
2023-04-13T04:14:05.386Z,99662.84
2023-04-13T04:16:32.892Z,99670.97
2023-04-13T04:19:10.311Z,99668.56
2023-04-13T04:21:36.941Z,99675.66
2023-04-13T04:24:20.447Z,99670.41
2023-04-13T04:26:50.070Z,99663.13
2023-04-13T04:29:17.724Z,99669.97
2023-04-13T04:31:44.365Z,99671.16
2023-04-13T04:34:16.856Z,99680.72
2023-04-13T04:36:45.462Z,99686.63
2023-04-13T04:39:14.295Z,99683.72
2023-04-13T04:41:49.767Z,99694.00
2023-04-13T04:44:18.707Z,99689.66
2023-04-13T04:46:45.521Z,99677.75
2023-04-13T04:49:14.959Z,99679.19
2023-04-13T04:51:41.654Z,99675.78
2023-04-13T04:54:09.374Z,99678.22
2023-04-13T04:56:35.989Z,99684.47
2023-04-13T04:59:02.564Z,99677.44
2023-04-13T05:01:38.898Z,99678.53
2023-04-13T05:04:10.413Z,99675.66
2023-04-13T05:06:41.311Z,99681.75
2023-04-13T05:09:09.999Z,99684.25
2023-04-13T05:11:39.423Z,99693.66
2023-04-13T05:14:08.649Z,99689.94
2023-04-13T05:16:36.127Z,99699.41
2023-04-13T05:19:10.378Z,99689.19
2023-04-13T05:22:01.446Z,99694.47
2023-04-13T05:24:33.572Z,99700.72
2023-04-13T05:27:02.024Z,99711.41
2023-04-13T05:29:28.539Z,99714.03
2023-04-13T05:31:55.082Z,99705.66
2023-04-13T05:34:22.671Z,99703.94
2023-04-13T05:37:05.411Z,99710.06
2023-04-13T05:39:32.011Z,99712.94
2023-04-13T05:41:58.781Z,99731.75
2023-04-13T05:44:27.112Z,99743.50
2023-04-13T05:46:54.428Z,99729.69
2023-04-13T05:49:20.958Z,99734.41
2023-04-13T05:51:48.355Z,99740.91
2023-04-13T05:54:17.380Z,99744.75
2023-04-13T05:56:47.615Z,99747.75
2023-04-13T05:59:15.363Z,99742.63
2023-04-13T06:01:42.179Z,99753.28
2023-04-13T06:04:09.584Z,99761.22
2023-04-13T06:06:36.323Z,99768.50
2023-04-13T06:09:05.325Z,99762.97
2023-04-13T06:11:31.960Z,99764.91
2023-04-13T06:14:00.187Z,99780.75
2023-04-13T06:16:27.047Z,99770.66
2023-04-13T06:18:54.494Z,99772.34
2023-04-13T06:21:21.123Z,99771.13
2023-04-13T06:23:47.617Z,99782.66
2023-04-13T06:26:25.074Z,99782.19
2023-04-13T06:28:54.853Z,99788.25
2023-04-13T06:31:23.250Z,99785.13
2023-04-13T06:33:51.634Z,99791.09
2023-04-13T06:36:23.956Z,99794.91
2023-04-13T06:38:52.119Z,99795.72
2023-04-13T06:41:19.600Z,99800.56
2023-04-13T06:43:47.727Z,99809.94
2023-04-13T06:46:32.126Z,99812.97
2023-04-13T06:49:05.662Z,99825.50
2023-04-13T06:51:33.921Z,99821.81
2023-04-13T06:54:00.996Z,99839.59
2023-04-13T06:56:27.629Z,99842.03
2023-04-13T06:59:00.773Z,99839.88
2023-04-13T07:01:28.898Z,99841.31
2023-04-13T07:03:56.445Z,99845.06
2023-04-13T07:06:23.538Z,99844.63
2023-04-13T07:08:51.917Z,99839.38
2023-04-13T07:11:18.824Z,99833.19
2023-04-13T07:13:45.719Z,99844.88
2023-04-13T07:16:13.984Z,99842.81
2023-04-13T07:18:44.171Z,99850.50
2023-04-13T07:21:10.758Z,99851.91
2023-04-13T07:23:52.518Z,99846.16
2023-04-13T07:26:19.125Z,99847.84
2023-04-13T07:28:45.801Z,99846.63
2023-04-13T07:31:13.566Z,99847.84
2023-04-13T07:33:44.210Z,99837.72
2023-04-13T07:36:11.612Z,99847.81
2023-04-13T07:38:40.560Z,99849.16
2023-04-13T07:41:07.510Z,99856.34
2023-04-13T07:43:36.841Z,99862.69
2023-04-13T07:46:12.641Z,99852.91
2023-04-13T07:48:43.872Z,99855.41
2023-04-13T07:51:20.992Z,99857.22
2023-04-13T07:53:49.093Z,99858.66
2023-04-13T07:56:16.016Z,99855.03
2023-04-13T07:58:42.617Z,99853.75
2023-04-13T08:01:09.420Z,99861.31
2023-04-13T08:03:36.839Z,99863.72
2023-04-13T08:06:10.674Z,99871.72
2023-04-13T08:08:37.324Z,99870.25
2023-04-13T08:11:04.378Z,99874.38
2023-04-13T08:13:33.524Z,99882.97
2023-04-13T08:16:00.507Z,99882.63
2023-04-13T08:18:28.053Z,99892.31
2023-04-13T08:20:55.154Z,99888.50
2023-04-13T08:23:23.920Z,99894.38
2023-04-13T08:25:50.534Z,99899.22
2023-04-13T08:28:17.143Z,99893.69
2023-04-13T08:30:43.912Z,99890.75
2023-04-13T08:33:10.952Z,99893.56
2023-04-13T08:35:39.380Z,99906.94
2023-04-13T08:38:07.662Z,99898.94
2023-04-13T08:40:39.006Z,99891.13
2023-04-13T08:43:08.474Z,99893.88
2023-04-13T08:45:36.045Z,99895.09
2023-04-13T08:48:02.978Z,99893.41
2023-04-13T08:50:32.635Z,99895.25
2023-04-13T08:53:00.318Z,99904.16
2023-04-13T08:55:27.010Z,99904.41
2023-04-13T08:57:57.670Z,99902.25
2023-04-13T09:00:27.520Z,99904.22
2023-04-13T09:03:06.132Z,99916.69
2023-04-13T09:05:39.074Z,99899.59
2023-04-13T09:08:08.006Z,99895.94
2023-04-13T09:10:36.860Z,99900.78
2023-04-13T09:13:03.408Z,99902.31
2023-04-13T09:15:31.759Z,99907.06
2023-04-13T09:18:28.027Z,99902.41
2023-04-13T09:21:01.447Z,99907.69
2023-04-13T09:23:28.036Z,99911.53
2023-04-13T09:26:08.382Z,99921.78
2023-04-13T09:28:45.535Z,99918.69
2023-04-13T09:31:13.642Z,99918.19
2023-04-13T09:33:45.968Z,99926.16
2023-04-13T09:36:13.719Z,99929.19
2023-04-13T09:38:40.276Z,99928.06
2023-04-13T09:41:09.740Z,99928.09
2023-04-13T09:43:37.787Z,99920.13
2023-04-13T09:46:14.233Z,99924.44
2023-04-13T09:48:41.160Z,99939.81
2023-04-13T09:51:08.602Z,99919.06
2023-04-13T09:53:50.201Z,99922.16
2023-04-13T09:56:17.215Z,99918.34
2023-04-13T09:58:45.495Z,99927.59
2023-04-13T10:01:12.621Z,99931.31
2023-04-13T10:03:39.293Z,99926.94
2023-04-13T10:06:07.893Z,99932.81
2023-04-13T10:08:38.948Z,99941.94
2023-04-13T10:11:12.268Z,99933.06
2023-04-13T10:13:50.773Z,99926.16
2023-04-13T10:16:31.837Z,99933.13
2023-04-13T10:19:03.123Z,99936.00
2023-04-13T10:21:33.275Z,99950.81
2023-04-13T10:24:00.006Z,99951.06
2023-04-13T10:26:33.263Z,99959.78
2023-04-13T10:29:01.569Z,99947.72
2023-04-13T10:31:42.709Z,99952.97
2023-04-13T10:34:10.543Z,99947.16
2023-04-13T10:36:43.121Z,99938.75
2023-04-13T10:39:10.676Z,99946.31
2023-04-13T10:41:37.978Z,99948.16
2023-04-13T10:44:06.385Z,99950.16
2023-04-13T10:46:34.686Z,99952.69
2023-04-13T10:49:02.235Z,99946.06
2023-04-13T10:51:42.480Z,99955.03
2023-04-13T10:54:10.358Z,99955.22
2023-04-13T10:56:37.267Z,99956.19
2023-04-13T10:59:04.468Z,99966.41
2023-04-13T11:01:31.968Z,99968.34
2023-04-13T11:04:07.489Z,99974.94
2023-04-13T11:06:37.760Z,99964.78
2023-04-13T11:09:07.045Z,99965.38
2023-04-13T11:11:36.309Z,99979.28
2023-04-13T11:14:03.702Z,99975.63
2023-04-13T11:16:30.528Z,99978.31
2023-04-13T11:19:04.149Z,99990.28
2023-04-13T11:21:31.829Z,99982.78
2023-04-13T11:24:02.348Z,99983.22
2023-04-13T11:26:38.207Z,99992.91
2023-04-13T11:29:05.082Z,99990.19
2023-04-13T11:31:37.409Z,99981.91
2023-04-13T11:34:06.895Z,99983.63
2023-04-13T11:36:33.598Z,99976.19
2023-04-13T11:39:01.983Z,99984.34
2023-04-13T11:41:30.137Z,99983.50
2023-04-13T11:43:57.176Z,99984.81
2023-04-13T11:46:26.703Z,99989.06
2023-04-13T11:48:55.119Z,99993.06
2023-04-13T11:51:22.353Z,99994.16
2023-04-13T11:53:51.262Z,99992.41
2023-04-13T11:56:18.228Z,99995.38
2023-04-13T11:58:45.003Z,99987.47
2023-04-13T12:01:14.656Z,99989.97
2023-04-13T12:03:57.532Z,99990.72
2023-04-13T12:06:35.046Z,99988.16
2023-04-13T12:09:10.124Z,99993.56
2023-04-13T12:11:44.271Z,99980.28
2023-04-13T12:14:47.683Z,99989.72
2023-04-13T12:17:34.924Z,99989.09
2023-04-13T12:20:00.377Z,99991.59
2023-04-13T12:25:23.979Z,99990.31
2023-04-13T12:27:52.536Z,99988.31
2023-04-13T12:30:20.939Z,100000.66
2023-04-13T12:32:51.088Z,99999.53
2023-04-13T12:35:19.394Z,100000.56
2023-04-13T12:37:47.479Z,99996.22
2023-04-13T12:40:15.868Z,99998.22
2023-04-13T12:42:43.284Z,100001.00
2023-04-13T12:45:10.273Z,99999.28
2023-04-13T12:47:37.478Z,99998.91
2023-04-13T12:50:06.826Z,99999.25
2023-04-13T12:52:34.086Z,99992.09
2023-04-13T12:55:01.948Z,100000.78
2023-04-13T12:57:29.138Z,99994.28
2023-04-13T12:59:56.516Z,99998.81
2023-04-13T13:02:24.355Z,100001.56
2023-04-13T13:04:51.649Z,100003.13
2023-04-13T13:07:19.213Z,100005.25
2023-04-13T13:09:45.934Z,100002.06
2023-04-13T13:12:12.777Z,100000.16
2023-04-13T13:14:39.354Z,99991.34
2023-04-13T13:17:05.869Z,99993.63
2023-04-13T13:19:32.372Z,99989.00
2023-04-13T13:22:00.113Z,99993.63
2023-04-13T13:24:26.675Z,99984.03
2023-04-13T13:27:19.567Z,99991.25
2023-04-13T13:29:40.664Z,99987.22
2023-04-13T13:32:07.338Z,99991.69
2023-04-13T13:34:33.898Z,100003.13
2023-04-13T13:37:00.402Z,99996.03
2023-04-13T13:39:27.193Z,99997.13
2023-04-13T13:41:53.742Z,99997.94
2023-04-13T13:44:20.394Z,100008.19
2023-04-13T13:46:46.977Z,100011.75
2023-04-13T13:49:13.778Z,100010.47
2023-04-13T13:52:09.212Z,100005.69
2023-04-13T13:54:43.825Z,100013.13
2023-04-13T13:57:10.442Z,100003.03
2023-04-13T13:59:36.972Z,100015.63
2023-04-13T14:02:03.642Z,100013.75
2023-04-13T14:04:30.288Z,100015.97
2023-04-13T14:06:57.222Z,100017.53
2023-04-13T14:09:23.751Z,100021.31
2023-04-13T14:11:50.900Z,100013.13
2023-04-13T14:14:21.881Z,100027.31
2023-04-13T14:16:49.073Z,100011.34
2023-04-13T14:19:15.683Z,100016.41
2023-04-13T14:21:42.618Z,100015.66
2023-04-13T14:24:09.112Z,100012.78
2023-04-13T14:26:38.114Z,100024.09
2023-04-13T14:29:04.837Z,100011.56
2023-04-13T14:31:31.470Z,100010.88
2023-04-13T14:33:58.035Z,100014.97
2023-04-13T14:36:24.605Z,100025.25
2023-04-13T14:38:52.449Z,100042.00
2023-04-13T14:41:19.280Z,100033.78
2023-04-13T14:43:45.773Z,100030.63
2023-04-13T14:46:13.491Z,100034.34
2023-04-13T14:48:40.074Z,100019.44
2023-04-13T14:51:07.169Z,100021.34
2023-04-13T14:53:33.743Z,100023.25
2023-04-13T14:56:00.299Z,100019.72
2023-04-13T14:58:26.832Z,100031.09
2023-04-13T15:00:53.409Z,100034.84
2023-04-13T15:03:20.129Z,100038.38
2023-04-13T15:05:48.356Z,100042.00
2023-04-13T15:08:16.685Z,100039.72
2023-04-13T15:10:43.270Z,100031.88
2023-04-13T15:13:09.916Z,100043.38
2023-04-13T15:15:37.557Z,100054.09
2023-04-13T15:18:04.956Z,100050.34
2023-04-13T15:20:31.586Z,100058.28
2023-04-13T15:22:59.515Z,100058.19
2023-04-13T15:25:26.480Z,100069.88
2023-04-13T15:27:54.538Z,100059.31
2023-04-13T15:30:30.184Z,100056.75
2023-04-13T15:32:58.729Z,100067.88
2023-04-13T15:35:26.965Z,100068.03
2023-04-13T15:37:53.880Z,100074.28
2023-04-13T15:40:25.007Z,100081.19
2023-04-13T15:42:51.446Z,100079.50
2023-04-13T15:45:18.973Z,100068.19
2023-04-13T15:47:45.506Z,100078.47
2023-04-13T15:50:12.446Z,100079.84
2023-04-13T15:52:39.528Z,100085.13
2023-04-13T15:55:07.136Z,100088.03
2023-04-13T15:57:34.011Z,100093.81
2023-04-13T16:00:01.046Z,100095.06
2023-04-13T16:02:27.724Z,100102.72
2023-04-13T16:04:54.299Z,100101.97
2023-04-13T16:07:21.008Z,100104.13
2023-04-13T16:09:48.334Z,100106.91
2023-04-13T16:12:14.802Z,100107.22
2023-04-13T16:14:41.885Z,100107.50
2023-04-13T16:17:09.500Z,100111.53
2023-04-13T16:19:36.333Z,100097.81
2023-04-13T16:22:05.434Z,100101.41
2023-04-13T16:24:33.470Z,100095.94
2023-04-13T16:27:00.778Z,100107.91
2023-04-13T16:29:28.831Z,100102.38
2023-04-13T16:31:58.451Z,100113.66
2023-04-13T16:34:26.620Z,100116.22
2023-04-13T16:36:53.643Z,100116.22
2023-04-13T16:39:21.860Z,100114.00
2023-04-13T16:41:48.465Z,100119.66
2023-04-13T16:44:15.002Z,100125.84
2023-04-13T16:46:41.565Z,100128.56
2023-04-13T16:49:08.111Z,100126.31
2023-04-13T16:51:34.645Z,100131.34
2023-04-13T16:54:03.609Z,100134.50
2023-04-13T16:56:30.451Z,100133.75
2023-04-13T16:58:57.329Z,100141.25
2023-04-13T17:01:25.576Z,100141.09
2023-04-13T17:03:52.980Z,100139.38
2023-04-13T17:06:20.188Z,100139.78
2023-04-13T17:08:46.896Z,100142.16
2023-04-13T17:11:13.548Z,100148.66
2023-04-13T17:13:40.109Z,100151.88
2023-04-13T17:16:08.379Z,100150.41
2023-04-13T17:18:35.167Z,100164.19
2023-04-13T17:21:01.766Z,100160.13
2023-04-13T17:23:28.524Z,100162.91
2023-04-13T17:25:56.717Z,100156.69
2023-04-13T17:28:24.076Z,100161.25
2023-04-13T17:30:50.847Z,100160.91
2023-04-13T17:33:17.375Z,100160.91
2023-04-13T17:35:43.892Z,100161.88
2023-04-13T17:38:10.474Z,100163.63
2023-04-13T17:40:36.964Z,100161.59
2023-04-13T17:43:05.620Z,100160.94
2023-04-13T17:45:32.179Z,100164.97
2023-04-13T17:47:58.793Z,100156.00
2023-04-13T17:50:25.390Z,100168.34
2023-04-13T17:52:52.054Z,100167.28
2023-04-13T17:55:18.531Z,100166.53
2023-04-13T17:57:45.055Z,100168.22
2023-04-13T18:00:12.311Z,100166.59
2023-04-13T18:02:39.432Z,100160.56
2023-04-13T18:05:07.238Z,100161.31
2023-04-13T18:07:33.756Z,100158.88
2023-04-13T18:10:00.510Z,100160.94
2023-04-13T18:12:27.037Z,100158.66
2023-04-13T18:14:53.881Z,100162.06
2023-04-13T18:17:21.541Z,100163.25
2023-04-13T18:19:52.022Z,100174.22
2023-04-13T18:22:18.545Z,100170.22
2023-04-13T18:24:45.268Z,100175.59
2023-04-13T18:27:12.214Z,100175.59
2023-04-13T18:29:38.755Z,100175.88
2023-04-13T18:32:05.623Z,100179.13
2023-04-13T18:34:34.342Z,100190.34
2023-04-13T18:37:01.680Z,100195.53
2023-04-13T18:39:28.227Z,100198.31
2023-04-13T18:41:54.808Z,100199.94
2023-04-13T18:44:21.338Z,100202.66
2023-04-13T18:46:48.158Z,100212.03
2023-04-13T18:49:14.866Z,100222.88
2023-04-13T18:51:41.337Z,100233.44
2023-04-13T18:54:07.946Z,100240.44
2023-04-13T18:56:34.487Z,100255.31
2023-04-13T18:59:01.014Z,100260.31
2023-04-13T19:01:27.569Z,100263.00
2023-04-13T19:03:54.323Z,100282.25
2023-04-13T19:06:21.201Z,100285.53
2023-04-13T19:08:47.798Z,100288.53
2023-04-13T19:11:16.149Z,100286.25
2023-04-13T19:13:44.131Z,100286.81
2023-04-13T19:16:11.049Z,100291.38
2023-04-13T19:18:37.549Z,100292.94
2023-04-13T19:21:06.611Z,100299.88
2023-04-13T19:23:33.484Z,100300.78
2023-04-13T19:26:00.153Z,100312.25
2023-04-13T19:28:27.047Z,100312.38
2023-04-13T19:30:55.170Z,100314.34
2023-04-13T19:33:21.713Z,100316.44
2023-04-13T19:35:48.300Z,100325.25
2023-04-13T19:38:14.851Z,100328.25
2023-04-13T19:40:41.677Z,100323.94
2023-04-13T19:43:08.189Z,100333.88
2023-04-13T19:45:35.426Z,100337.94
2023-04-13T19:48:01.997Z,100348.19
2023-04-13T19:50:28.664Z,100342.03
2023-04-13T19:52:55.185Z,100346.44
2023-04-13T19:55:21.732Z,100344.00
2023-04-13T19:57:48.302Z,100349.31
2023-04-13T20:00:17.694Z,100339.81
2023-04-13T20:02:46.943Z,100339.13
2023-04-13T20:05:14.601Z,100344.38
2023-04-13T20:07:41.357Z,100340.06
2023-04-13T20:10:09.708Z,100338.38
2023-04-13T20:12:36.194Z,100329.88
2023-04-13T20:15:03.810Z,100326.53
2023-04-13T20:17:30.558Z,100331.09
2023-04-13T20:19:57.190Z,100325.25
2023-04-13T20:22:23.718Z,100329.97
2023-04-13T20:24:50.276Z,100327.66
2023-04-13T20:27:16.745Z,100325.41
2023-04-13T20:29:43.278Z,100324.72
2023-04-13T20:32:09.808Z,100309.16
2023-04-13T20:34:36.297Z,100309.44
2023-04-13T20:37:02.814Z,100304.09
2023-04-13T20:39:30.227Z,100303.75
2023-04-13T20:41:57.081Z,100297.06
2023-04-13T20:44:24.186Z,100299.44
2023-04-13T20:46:54.464Z,100299.44
2023-04-13T20:49:22.916Z,100295.16
2023-04-13T20:51:55.958Z,100297.72
2023-04-13T20:54:23.301Z,100291.03
2023-04-13T20:56:49.819Z,100291.25
2023-04-13T20:59:17.885Z,100289.81
2023-04-13T21:01:44.507Z,100293.34
2023-04-13T21:04:11.387Z,100289.88
2023-04-13T21:06:37.977Z,100289.97
2023-04-13T21:09:08.202Z,100285.66
2023-04-13T21:11:34.779Z,100286.78
2023-04-13T21:14:01.561Z,100294.84
2023-04-13T21:16:28.653Z,100287.06
2023-04-13T21:18:55.912Z,100287.16
2023-04-13T21:21:23.528Z,100288.00
2023-04-13T21:23:53.637Z,100299.41
2023-04-13T21:26:20.785Z,100289.28
2023-04-13T21:28:47.467Z,100278.88
2023-04-13T21:31:13.986Z,100286.06
2023-04-13T21:33:40.483Z,100280.69
2023-04-13T21:38:39.980Z,100273.03
2023-04-13T21:41:06.667Z,100277.97
2023-04-13T21:43:33.127Z,100285.94
2023-04-13T21:45:59.635Z,100276.56
2023-04-13T21:48:26.113Z,100278.25
2023-04-13T21:50:52.782Z,100280.16
2023-04-13T21:53:19.294Z,100276.97
2023-04-13T21:55:45.822Z,100281.34
2023-04-13T21:58:12.313Z,100277.47
2023-04-13T22:00:38.791Z,100281.75
2023-04-13T22:03:05.469Z,100285.38
2023-04-13T22:05:32.029Z,100280.69
2023-04-13T22:07:58.532Z,100290.69
2023-04-13T22:10:25.004Z,100296.59
2023-04-13T22:12:51.500Z,100299.34
2023-04-13T22:15:18.020Z,100303.31
2023-04-13T22:17:44.587Z,100304.94
2023-04-13T22:20:11.366Z,100301.47
2023-04-13T22:22:37.862Z,100309.03
2023-04-13T22:25:04.492Z,100313.44
2023-04-13T22:27:30.980Z,100321.34
2023-04-13T22:29:57.565Z,100319.88
2023-04-13T22:32:24.164Z,100318.75
2023-04-13T22:34:50.754Z,100322.31
2023-04-13T22:37:17.759Z,100326.31
2023-04-13T22:39:44.385Z,100325.97
2023-04-13T22:42:10.860Z,100312.34
2023-04-13T22:44:37.353Z,100310.44
2023-04-13T22:47:04.573Z,100306.50
2023-04-13T22:49:32.196Z,100311.50
2023-04-13T22:52:00.265Z,100307.22
2023-04-13T22:54:26.739Z,100307.16
2023-04-13T22:56:53.252Z,100311.88
2023-04-13T22:59:19.759Z,100302.09
2023-04-13T23:01:46.616Z,100299.69
2023-04-13T23:04:15.696Z,100308.72
2023-04-13T23:06:42.664Z,100313.06
2023-04-13T23:09:09.192Z,100315.81
2023-04-13T23:11:35.746Z,100310.72
2023-04-13T23:14:02.408Z,100305.97
2023-04-13T23:16:28.992Z,100296.59
2023-04-13T23:18:56.558Z,100291.13
2023-04-13T23:21:23.172Z,100281.75
2023-04-13T23:23:49.901Z,100281.56
2023-04-13T23:26:16.441Z,100277.31
2023-04-13T23:28:43.116Z,100273.44
2023-04-13T23:31:09.688Z,100274.22
2023-04-13T23:33:36.374Z,100275.38
2023-04-13T23:36:03.578Z,100271.31
2023-04-13T23:38:30.813Z,100267.78
2023-04-13T23:40:57.755Z,100274.88
2023-04-13T23:43:24.846Z,100277.19
2023-04-13T23:45:52.198Z,100282.28
2023-04-13T23:48:22.501Z,100280.25
2023-04-13T23:50:49.362Z,100278.00
2023-04-13T23:53:16.685Z,100273.72
2023-04-13T23:55:43.315Z,100267.44
2023-04-13T23:58:09.824Z,100272.50
